Terminal Aerodrome Forecast
Issued by NWS Sterling, VA

Home | Current Version | Previous Version | Text Only | Print | Product List | Glossary On
Versions: 1 2 3 4 5 6 7 8 9 10 11 12 13 14 15 16 17 18 19 20 21 22 23
000
FTUS41 KLWX 062327
TAFMRB
TAF
KMRB 062327Z 0700/0724 14005KT P6SM BKN050
     FM070600 VRB03KT 5SM BR BKN050
     FM071000 00000KT 3SM BR SCT090
     FM071300 VRB03KT 5SM BR SCT130
     FM071500 25007KT P6SM FEW040 SCT150
     FM072300 18007KT P6SM FEW050 SCT250=

USA.gov is the U.S. government's official web portal to all federal, state and local government web resources and services.